sensor_id;sensor_type;location;lat;lon;timestamp;pressure;altitude;pressure_sealevel;temperature;humidity
16194;BME280;8204;53.582;10.080;2023-10-09T00:02:06;101340.88;;;14.37;100.00
16194;BME280;8204;53.582;10.080;2023-10-09T00:04:37;101350.59;;;14.37;100.00
16194;BME280;8204;53.582;10.080;2023-10-09T00:07:04;101341.84;;;14.36;100.00
16194;BME280;8204;53.582;10.080;2023-10-09T00:09:34;101331.50;;;14.35;100.00
16194;BME280;8204;53.582;10.080;2023-10-09T00:12:15;101311.22;;;14.35;100.00
16194;BME280;8204;53.582;10.080;2023-10-09T00:14:42;101272.69;;;14.34;100.00
16194;BME280;8204;53.582;10.080;2023-10-09T00:17:14;101257.84;;;14.33;100.00
16194;BME280;8204;53.582;10.080;2023-10-09T00:19:39;101262.47;;;14.31;100.00
16194;BME280;8204;53.582;10.080;2023-10-09T00:22:08;101250.25;;;14.30;100.00
16194;BME280;8204;53.582;10.080;2023-10-09T00:24:45;101258.16;;;14.30;100.00
16194;BME280;8204;53.582;10.080;2023-10-09T00:27:15;101240.69;;;14.29;100.00
16194;BME280;8204;53.582;10.080;2023-10-09T00:29:41;101233.97;;;14.27;100.00
16194;BME280;8204;53.582;10.080;2023-10-09T00:32:11;101224.59;;;14.24;100.00
16194;BME280;8204;53.582;10.080;2023-10-09T00:34:50;101219.31;;;14.24;100.00
16194;BME280;8204;53.582;10.080;2023-10-09T00:37:17;101227.41;;;14.23;100.00
16194;BME280;8204;53.582;10.080;2023-10-09T00:39:44;101223.28;;;14.20;100.00
16194;BME280;8204;53.582;10.080;2023-10-09T00:42:12;101216.38;;;14.19;100.00
16194;BME280;8204;53.582;10.080;2023-10-09T00:44:41;101215.53;;;14.19;100.00
16194;BME280;8204;53.582;10.080;2023-10-09T00:47:10;101218.34;;;14.17;100.00
16194;BME280;8204;53.582;10.080;2023-10-09T00:49:54;101218.69;;;14.14;100.00
16194;BME280;8204;53.582;10.080;2023-10-09T00:52:32;101210.78;;;14.14;100.00
16194;BME280;8204;53.582;10.080;2023-10-09T00:55:09;101193.34;;;14.13;100.00
16194;BME280;8204;53.582;10.080;2023-10-09T00:58:14;101172.56;;;14.10;100.00
16194;BME280;8204;53.582;10.080;2023-10-09T01:00:49;101165.63;;;14.09;100.00
16194;BME280;8204;53.582;10.080;2023-10-09T01:03:18;101163.97;;;14.08;100.00
16194;BME280;8204;53.582;10.080;2023-10-09T01:05:53;101152.81;;;14.06;100.00
16194;BME280;8204;53.582;10.080;2023-10-09T01:08:40;101149.50;;;14.04;100.00
16194;BME280;8204;53.582;10.080;2023-10-09T01:11:07;101155.13;;;14.01;100.00
16194;BME280;8204;53.582;10.080;2023-10-09T01:13:40;101153.50;;;14.00;100.00
16194;BME280;8204;53.582;10.080;2023-10-09T01:16:16;101144.75;;;14.00;100.00
16194;BME280;8204;53.582;10.080;2023-10-09T01:18:46;101139.66;;;13.98;100.00
16194;BME280;8204;53.582;10.080;2023-10-09T01:21:16;101134.38;;;13.98;100.00
16194;BME280;8204;53.582;10.080;2023-10-09T01:23:45;101139.97;;;13.95;100.00
16194;BME280;8204;53.582;10.080;2023-10-09T01:26:30;101141.00;;;13.94;100.00
16194;BME280;8204;53.582;10.080;2023-10-09T01:28:58;101140.16;;;13.94;100.00
16194;BME280;8204;53.582;10.080;2023-10-09T01:31:26;101131.44;;;13.93;100.00
16194;BME280;8204;53.582;10.080;2023-10-09T01:33:53;101116.81;;;13.91;100.00
16194;BME280;8204;53.582;10.080;2023-10-09T01:36:27;101110.69;;;13.90;100.00
16194;BME280;8204;53.582;10.080;2023-10-09T01:39:00;101105.78;;;13.87;100.00
16194;BME280;8204;53.582;10.080;2023-10-09T01:41:32;101111.06;;;13.87;100.00
16194;BME280;8204;53.582;10.080;2023-10-09T01:43:59;101137.56;;;13.86;100.00
16194;BME280;8204;53.582;10.080;2023-10-09T01:46:28;101145.63;;;13.84;100.00
16194;BME280;8204;53.582;10.080;2023-10-09T01:48:53;101144.16;;;13.82;100.00
16194;BME280;8204;53.582;10.080;2023-10-09T01:51:19;101125.72;;;13.82;100.00
16194;BME280;8204;53.582;10.080;2023-10-09T01:53:45;101130.19;;;13.82;100.00
16194;BME280;8204;53.582;10.080;2023-10-09T01:56:15;101109.25;;;13.80;100.00
16194;BME280;8204;53.582;10.080;2023-10-09T01:58:42;101106.81;;;13.79;100.00
16194;BME280;8204;53.582;10.080;2023-10-09T02:01:09;101114.69;;;13.79;100.00
16194;BME280;8204;53.582;10.080;2023-10-09T02:03:35;101105.34;;;13.76;100.00
16194;BME280;8204;53.582;10.080;2023-10-09T02:06:02;101100.25;;;13.75;100.00
16194;BME280;8204;53.582;10.080;2023-10-09T02:08:29;101112.56;;;13.74;100.00
16194;BME280;8204;53.582;10.080;2023-10-09T02:10:55;101103.88;;;13.74;100.00
16194;BME280;8204;53.582;10.080;2023-10-09T02:13:22;101105.03;;;13.71;100.00
16194;BME280;8204;53.582;10.080;2023-10-09T02:15:56;101088.56;;;13.69;100.00
16194;BME280;8204;53.582;10.080;2023-10-09T02:18:37;101064.06;;;13.69;100.00
16194;BME280;8204;53.582;10.080;2023-10-09T02:21:18;101083.47;;;13.68;100.00
16194;BME280;8204;53.582;10.080;2023-10-09T02:23:54;101098.44;;;13.67;100.00
16194;BME280;8204;53.582;10.080;2023-10-09T02:26:22;101082.81;;;13.66;100.00
16194;BME280;8204;53.582;10.080;2023-10-09T02:28:54;101069.66;;;13.66;100.00
16194;BME280;8204;53.582;10.080;2023-10-09T02:31:40;101057.47;;;13.65;100.00
16194;BME280;8204;53.582;10.080;2023-10-09T02:34:09;101076.06;;;13.63;100.00
16194;BME280;8204;53.582;10.080;2023-10-09T02:36:36;101081.34;;;13.63;100.00
16194;BME280;8204;53.582;10.080;2023-10-09T02:39:09;101100.59;;;13.64;100.00
16194;BME280;8204;53.582;10.080;2023-10-09T02:41:49;101087.59;;;13.62;100.00
16194;BME280;8204;53.582;10.080;2023-10-09T02:44:16;101049.75;;;13.63;100.00
16194;BME280;8204;53.582;10.080;2023-10-09T02:46:42;101047.28;;;13.62;100.00
16194;BME280;8204;53.582;10.080;2023-10-09T02:49:10;101046.44;;;13.61;100.00
16194;BME280;8204;53.582;10.080;2023-10-09T02:51:41;101050.06;;;13.60;100.00
16194;BME280;8204;53.582;10.080;2023-10-09T02:54:13;101036.09;;;13.60;100.00
16194;BME280;8204;53.582;10.080;2023-10-09T02:56:48;101025.56;;;13.60;100.00
16194;BME280;8204;53.582;10.080;2023-10-09T02:59:21;101047.63;;;13.59;100.00
16194;BME280;8204;53.582;10.080;2023-10-09T03:01:47;101061.78;;;13.58;100.00
16194;BME280;8204;53.582;10.080;2023-10-09T03:04:13;101065.38;;;13.57;100.00
16194;BME280;8204;53.582;10.080;2023-10-09T03:06:41;101056.69;;;13.56;100.00
16194;BME280;8204;53.582;10.080;2023-10-09T03:09:16;101047.97;;;13.56;100.00
16194;BME280;8204;53.582;10.080;2023-10-09T03:11:48;101035.78;;;13.55;100.00
16194;BME280;8204;53.582;10.080;2023-10-09T03:14:18;101025.59;;;13.52;100.00
16194;BME280;8204;53.582;10.080;2023-10-09T03:16:48;101046.66;;;13.52;100.00
16194;BME280;8204;53.582;10.080;2023-10-09T03:19:14;101043.34;;;13.50;100.00
16194;BME280;8204;53.582;10.080;2023-10-09T03:21:39;101046.00;;;13.50;100.00
16194;BME280;8204;53.582;10.080;2023-10-09T03:24:07;101031.03;;;13.50;100.00
16194;BME280;8204;53.582;10.080;2023-10-09T03:26:34;101027.91;;;13.47;100.00
16194;BME280;8204;53.582;10.080;2023-10-09T03:28:59;101036.00;;;13.45;100.00
16194;BME280;8204;53.582;10.080;2023-10-09T03:31:32;101030.72;;;13.45;100.00
16194;BME280;8204;53.582;10.080;2023-10-09T03:33:59;101022.00;;;13.45;100.00
16194;BME280;8204;53.582;10.080;2023-10-09T03:36:25;101025.63;;;13.44;100.00
16194;BME280;8204;53.582;10.080;2023-10-09T03:38:54;101031.06;;;13.42;100.00
16194;BME280;8204;53.582;10.080;2023-10-09T03:41:21;101034.53;;;13.43;100.00
16194;BME280;8204;53.582;10.080;2023-10-09T03:43:46;101020.53;;;13.42;100.00
16194;BME280;8204;53.582;10.080;2023-10-09T03:46:12;101033.88;;;13.41;100.00
16194;BME280;8204;53.582;10.080;2023-10-09T03:48:47;101019.88;;;13.40;100.00
16194;BME280;8204;53.582;10.080;2023-10-09T03:51:13;101000.63;;;13.40;100.00
16194;BME280;8204;53.582;10.080;2023-10-09T03:53:46;101005.22;;;13.38;100.00
16194;BME280;8204;53.582;10.080;2023-10-09T03:56:13;101016.75;;;13.37;100.00
16194;BME280;8204;53.582;10.080;2023-10-09T03:58:39;101004.44;;;13.37;100.00
16194;BME280;8204;53.582;10.080;2023-10-09T04:01:13;101017.78;;;13.36;100.00
16194;BME280;8204;53.582;10.080;2023-10-09T04:03:51;101000.16;;;13.36;100.00
16194;BME280;8204;53.582;10.080;2023-10-09T04:06:24;101004.59;;;13.36;100.00
16194;BME280;8204;53.582;10.080;2023-10-09T04:08:54;101000.31;;;13.35;100.00
16194;BME280;8204;53.582;10.080;2023-10-09T04:11:20;100985.53;;;13.34;100.00
16194;BME280;8204;53.582;10.080;2023-10-09T04:13:50;100989.94;;;13.33;100.00
16194;BME280;8204;53.582;10.080;2023-10-09T04:16:17;100993.75;;;13.31;100.00
16194;BME280;8204;53.582;10.080;2023-10-09T04:18:59;100990.31;;;13.30;100.00
16194;BME280;8204;53.582;10.080;2023-10-09T04:21:25;100986.88;;;13.30;100.00
16194;BME280;8204;53.582;10.080;2023-10-09T04:24:02;100985.22;;;13.29;100.00
16194;BME280;8204;53.582;10.080;2023-10-09T04:26:44;100975.69;;;13.28;100.00
16194;BME280;8204;53.582;10.080;2023-10-09T04:29:16;100965.16;;;13.28;100.00
16194;BME280;8204;53.582;10.080;2023-10-09T04:32:05;100969.75;;;13.26;100.00
16194;BME280;8204;53.582;10.080;2023-10-09T04:34:42;100977.00;;;13.24;100.00
16194;BME280;8204;53.582;10.080;2023-10-09T04:37:42;100975.38;;;13.23;100.00
16194;BME280;8204;53.582;10.080;2023-10-09T04:40:10;100977.16;;;13.22;100.00
16194;BME280;8204;53.582;10.080;2023-10-09T04:42:38;100983.28;;;13.23;100.00
16194;BME280;8204;53.582;10.080;2023-10-09T04:45:05;100995.75;;;13.21;100.00
16194;BME280;8204;53.582;10.080;2023-10-09T04:47:35;100977.34;;;13.21;100.00
16194;BME280;8204;53.582;10.080;2023-10-09T04:50:10;100988.69;;;13.21;100.00
16194;BME280;8204;53.582;10.080;2023-10-09T04:52:54;100994.13;;;13.20;100.00
16194;BME280;8204;53.582;10.080;2023-10-09T04:55:20;101001.03;;;13.21;100.00
16194;BME280;8204;53.582;10.080;2023-10-09T04:57:50;100998.41;;;13.21;100.00
16194;BME280;8204;53.582;10.080;2023-10-09T05:00:34;101000.19;;;13.20;100.00
16194;BME280;8204;53.582;10.080;2023-10-09T05:03:01;101004.66;;;13.20;100.00
16194;BME280;8204;53.582;10.080;2023-10-09T05:05:30;100995.75;;;13.21;100.00
16194;BME280;8204;53.582;10.080;2023-10-09T05:08:04;100983.59;;;13.20;100.00
16194;BME280;8204;53.582;10.080;2023-10-09T05:11:00;100982.78;;;13.19;100.00
16194;BME280;8204;53.582;10.080;2023-10-09T05:13:36;100995.09;;;13.19;100.00
16194;BME280;8204;53.582;10.080;2023-10-09T05:16:05;100978.66;;;13.17;100.00
16194;BME280;8204;53.582;10.080;2023-10-09T05:18:31;100977.03;;;13.16;100.00
16194;BME280;8204;53.582;10.080;2023-10-09T05:21:03;100965.69;;;13.15;100.00
16194;BME280;8204;53.582;10.080;2023-10-09T05:23:38;100949.41;;;13.12;100.00
16194;BME280;8204;53.582;10.080;2023-10-09T05:26:16;100954.03;;;13.10;100.00
16194;BME280;8204;53.582;10.080;2023-10-09T05:29:01;100964.56;;;13.10;100.00
16194;BME280;8204;53.582;10.080;2023-10-09T05:31:49;100963.91;;;13.08;100.00
16194;BME280;8204;53.582;10.080;2023-10-09T05:34:41;100970.16;;;13.07;100.00
16194;BME280;8204;53.582;10.080;2023-10-09T05:37:33;100956.34;;;13.05;100.00
16194;BME280;8204;53.582;10.080;2023-10-09T05:40:01;100961.59;;;13.05;100.00
16194;BME280;8204;53.582;10.080;2023-10-09T05:45:03;100969.66;;;13.04;100.00
16194;BME280;8204;53.582;10.080;2023-10-09T05:47:52;100971.50;;;13.03;100.00
16194;BME280;8204;53.582;10.080;2023-10-09T05:50:37;100971.81;;;13.00;100.00
16194;BME280;8204;53.582;10.080;2023-10-09T05:53:03;100977.06;;;13.00;100.00
16194;BME280;8204;53.582;10.080;2023-10-09T05:55:54;100988.75;;;12.98;100.00
16194;BME280;8204;53.582;10.080;2023-10-09T05:58:38;100975.59;;;12.98;100.00
16194;BME280;8204;53.582;10.080;2023-10-09T06:01:22;100986.31;;;12.96;100.00
16194;BME280;8204;53.582;10.080;2023-10-09T06:04:06;100977.56;;;12.96;100.00
16194;BME280;8204;53.582;10.080;2023-10-09T06:06:42;100965.25;;;12.96;100.00
16194;BME280;8204;53.582;10.080;2023-10-09T06:09:14;100950.47;;;12.95;100.00
16194;BME280;8204;53.582;10.080;2023-10-09T06:11:43;100952.25;;;12.95;100.00
16194;BME280;8204;53.582;10.080;2023-10-09T06:14:30;100974.94;;;12.96;100.00
16194;BME280;8204;53.582;10.080;2023-10-09T06:16:56;100977.75;;;12.94;100.00
16194;BME280;8204;53.582;10.080;2023-10-09T06:19:22;100972.66;;;12.93;100.00
16194;BME280;8204;53.582;10.080;2023-10-09T06:21:48;100965.56;;;12.93;100.00
16194;BME280;8204;53.582;10.080;2023-10-09T06:24:32;100942.88;;;12.92;100.00
16194;BME280;8204;53.582;10.080;2023-10-09T06:27:11;100923.50;;;12.93;100.00
16194;BME280;8204;53.582;10.080;2023-10-09T06:29:41;100920.06;;;12.93;100.00
16194;BME280;8204;53.582;10.080;2023-10-09T06:32:11;100926.13;;;12.93;100.00
16194;BME280;8204;53.582;10.080;2023-10-09T06:35:01;100905.25;;;12.92;100.00
16194;BME280;8204;53.582;10.080;2023-10-09T06:37:43;100907.22;;;12.90;100.00
16194;BME280;8204;53.582;10.080;2023-10-09T06:40:31;100888.81;;;12.90;100.00
16194;BME280;8204;53.582;10.080;2023-10-09T06:43:16;100884.53;;;12.89;100.00
16194;BME280;8204;53.582;10.080;2023-10-09T06:45:51;100894.25;;;12.88;100.00
16194;BME280;8204;53.582;10.080;2023-10-09T06:48:27;100866.00;;;12.90;100.00
16194;BME280;8204;53.582;10.080;2023-10-09T06:51:08;100859.09;;;12.89;100.00
16194;BME280;8204;53.582;10.080;2023-10-09T06:53:53;100845.09;;;12.89;100.00
16194;BME280;8204;53.582;10.080;2023-10-09T06:56:22;100853.16;;;12.87;100.00
16194;BME280;8204;53.582;10.080;2023-10-09T06:59:08;100874.19;;;12.87;100.00
16194;BME280;8204;53.582;10.080;2023-10-09T07:02:06;100865.63;;;12.85;100.00
16194;BME280;8204;53.582;10.080;2023-10-09T07:04:51;100861.38;;;12.84;100.00
16194;BME280;8204;53.582;10.080;2023-10-09T07:07:23;100854.47;;;12.83;100.00
16194;BME280;8204;53.582;10.080;2023-10-09T07:09:51;100844.75;;;12.84;100.00
16194;BME280;8204;53.582;10.080;2023-10-09T07:12:36;100840.34;;;12.84;100.00
16194;BME280;8204;53.582;10.080;2023-10-09T07:15:08;100837.72;;;12.84;100.00
16194;BME280;8204;53.582;10.080;2023-10-09T07:17:35;100836.69;;;12.85;100.00
16194;BME280;8204;53.582;10.080;2023-10-09T07:20:01;100845.41;;;12.86;100.00
16194;BME280;8204;53.582;10.080;2023-10-09T07:22:41;100850.69;;;12.86;100.00
16194;BME280;8204;53.582;10.080;2023-10-09T07:25:22;100839.19;;;12.87;100.00
16194;BME280;8204;53.582;10.080;2023-10-09T07:28:10;100828.66;;;12.87;100.00
16194;BME280;8204;53.582;10.080;2023-10-09T07:31:03;100817.28;;;12.86;100.00
16194;BME280;8204;53.582;10.080;2023-10-09T07:33:29;100821.59;;;12.87;100.00
16194;BME280;8204;53.582;10.080;2023-10-09T07:36:01;100811.75;;;12.89;100.00
16194;BME280;8204;53.582;10.080;2023-10-09T07:38:31;100802.03;;;12.90;100.00
16194;BME280;8204;53.582;10.080;2023-10-09T07:41:03;100807.28;;;12.90;100.00
16194;BME280;8204;53.582;10.080;2023-10-09T07:43:40;100805.50;;;12.90;100.00
16194;BME280;8204;53.582;10.080;2023-10-09T07:46:13;100812.38;;;12.91;100.00
16194;BME280;8204;53.582;10.080;2023-10-09T07:49:04;100800.25;;;12.90;100.00
16194;BME280;8204;53.582;10.080;2023-10-09T07:51:39;100810.56;;;12.92;100.00
16194;BME280;8204;53.582;10.080;2023-10-09T07:54:09;100806.13;;;12.92;100.00
16194;BME280;8204;53.582;10.080;2023-10-09T07:56:41;100798.88;;;12.94;100.00
16194;BME280;8204;53.582;10.080;2023-10-09T07:59:08;100789.84;;;12.97;100.00
16194;BME280;8204;53.582;10.080;2023-10-09T08:04:24;100788.66;;;12.99;100.00
16194;BME280;8204;53.582;10.080;2023-10-09T08:07:09;100798.03;;;13.02;100.00
16194;BME280;8204;53.582;10.080;2023-10-09T08:09:37;100781.25;;;13.03;100.00
16194;BME280;8204;53.582;10.080;2023-10-09T08:12:13;100781.06;;;13.04;100.00
16194;BME280;8204;53.582;10.080;2023-10-09T08:14:58;100775.66;;;13.06;100.00
16194;BME280;8204;53.582;10.080;2023-10-09T08:17:47;100774.81;;;13.05;100.00
16194;BME280;8204;53.582;10.080;2023-10-09T08:20:22;100778.28;;;13.06;100.00
16194;BME280;8204;53.582;10.080;2023-10-09T08:22:55;100786.97;;;13.06;100.00
16194;BME280;8204;53.582;10.080;2023-10-09T08:25:25;100784.16;;;13.08;100.00
16194;BME280;8204;53.582;10.080;2023-10-09T08:28:02;100776.13;;;13.09;100.00
16194;BME280;8204;53.582;10.080;2023-10-09T08:30:41;100779.56;;;13.10;100.00
16194;BME280;8204;53.582;10.080;2023-10-09T08:33:12;100776.13;;;13.09;100.00
16194;BME280;8204;53.582;10.080;2023-10-09T08:35:50;100772.50;;;13.10;100.00
16194;BME280;8204;53.582;10.080;2023-10-09T08:38:18;100773.13;;;13.12;100.00
16194;BME280;8204;53.582;10.080;2023-10-09T08:40:51;100770.50;;;13.12;100.00
16194;BME280;8204;53.582;10.080;2023-10-09T08:43:24;100781.03;;;13.12;100.00
16194;BME280;8204;53.582;10.080;2023-10-09T08:45:54;100781.03;;;13.12;100.00
16194;BME280;8204;53.582;10.080;2023-10-09T08:48:28;100781.50;;;13.15;100.00
16194;BME280;8204;53.582;10.080;2023-10-09T08:50:55;100776.88;;;13.17;100.00
16194;BME280;8204;53.582;10.080;2023-10-09T08:53:23;100777.69;;;13.18;100.00
16194;BME280;8204;53.582;10.080;2023-10-09T08:55:50;100773.28;;;13.18;100.00
16194;BME280;8204;53.582;10.080;2023-10-09T08:58:17;100769.66;;;13.19;100.00
16194;BME280;8204;53.582;10.080;2023-10-09T09:01:00;100759.13;;;13.19;100.00
16194;BME280;8204;53.582;10.080;2023-10-09T09:03:26;100757.94;;;13.22;100.00
16194;BME280;8204;53.582;10.080;2023-10-09T09:06:04;100754.16;;;13.24;100.00
16194;BME280;8204;53.582;10.080;2023-10-09T09:08:32;100745.09;;;13.27;100.00
16194;BME280;8204;53.582;10.080;2023-10-09T09:11:10;100745.75;;;13.29;100.00
16194;BME280;8204;53.582;10.080;2023-10-09T09:14:05;100740.09;;;13.32;100.00
16194;BME280;8204;53.582;10.080;2023-10-09T09:16:34;100732.84;;;13.34;100.00
16194;BME280;8204;53.582;10.080;2023-10-09T09:19:06;100727.22;;;13.37;100.00
16194;BME280;8204;53.582;10.080;2023-10-09T09:21:43;100730.50;;;13.39;100.00
16194;BME280;8204;53.582;10.080;2023-10-09T09:24:11;100728.53;;;13.41;100.00
16194;BME280;8204;53.582;10.080;2023-10-09T09:26:42;100724.91;;;13.42;100.00
16194;BME280;8204;53.582;10.080;2023-10-09T09:29:12;100717.63;;;13.44;100.00
16194;BME280;8204;53.582;10.080;2023-10-09T09:31:38;100716.44;;;13.46;100.00
16194;BME280;8204;53.582;10.080;2023-10-09T09:34:06;100713.47;;;13.49;100.00
16194;BME280;8204;53.582;10.080;2023-10-09T09:36:53;100714.94;;;13.52;100.00
16194;BME280;8204;53.582;10.080;2023-10-09T09:39:21;100712.78;;;13.55;100.00
16194;BME280;8204;53.582;10.080;2023-10-09T09:41:54;100698.44;;;13.58;100.00
16194;BME280;8204;53.582;10.080;2023-10-09T09:44:20;100704.16;;;13.61;100.00
16194;BME280;8204;53.582;10.080;2023-10-09T09:46:51;100688.00;;;13.64;100.00
16194;BME280;8204;53.582;10.080;2023-10-09T09:49:19;100682.56;;;13.66;100.00
16194;BME280;8204;53.582;10.080;2023-10-09T09:51:47;100670.66;;;13.70;100.00
16194;BME280;8204;53.582;10.080;2023-10-09T09:54:16;100661.41;;;13.74;100.00
16194;BME280;8204;53.582;10.080;2023-10-09T09:56:44;100663.06;;;13.75;100.00
16194;BME280;8204;53.582;10.080;2023-10-09T09:59:25;100661.69;;;13.79;100.00
16194;BME280;8204;53.582;10.080;2023-10-09T10:01:55;100665.78;;;13.81;100.00
16194;BME280;8204;53.582;10.080;2023-10-09T10:04:32;100659.31;;;13.83;100.00
16194;BME280;8204;53.582;10.080;2023-10-09T10:07:04;100652.72;;;13.87;100.00
16194;BME280;8204;53.582;10.080;2023-10-09T10:09:41;100651.53;;;13.90;100.00
16194;BME280;8204;53.582;10.080;2023-10-09T10:12:11;100645.06;;;13.92;100.00
16194;BME280;8204;53.582;10.080;2023-10-09T10:17:15;100643.53;;;13.98;100.00
16194;BME280;8204;53.582;10.080;2023-10-09T10:20:00;100643.34;;;13.99;100.00
16194;BME280;8204;53.582;10.080;2023-10-09T10:22:46;100649.25;;;14.01;100.00
16194;BME280;8204;53.582;10.080;2023-10-09T10:30:47;100656.78;;;14.04;100.00
16194;BME280;8204;53.582;10.080;2023-10-09T10:33:16;100641.63;;;14.06;100.00
16194;BME280;8204;53.582;10.080;2023-10-09T10:35:41;100643.25;;;14.07;100.00
16194;BME280;8204;53.582;10.080;2023-10-09T10:38:27;100639.59;;;14.08;100.00
16194;BME280;8204;53.582;10.080;2023-10-09T10:41:18;100646.19;;;14.12;100.00
16194;BME280;8204;53.582;10.080;2023-10-09T10:43:48;100626.75;;;14.13;100.00
16194;BME280;8204;53.582;10.080;2023-10-09T10:46:17;100638.53;;;14.17;100.00
16194;BME280;8204;53.582;10.080;2023-10-09T10:48:50;100630.44;;;14.19;100.00
16194;BME280;8204;53.582;10.080;2023-10-09T10:51:27;100632.72;;;14.22;100.00
16194;BME280;8204;53.582;10.080;2023-10-09T10:54:08;100636.81;;;14.24;100.00
16194;BME280;8204;53.582;10.080;2023-10-09T10:56:53;100626.91;;;14.26;100.00
16194;BME280;8204;53.582;10.080;2023-10-09T10:59:23;100619.59;;;14.28;100.00
16194;BME280;8204;53.582;10.080;2023-10-09T11:01:50;100616.63;;;14.31;100.00
16194;BME280;8204;53.582;10.080;2023-10-09T11:04:26;100618.25;;;14.32;100.00
16194;BME280;8204;53.582;10.080;2023-10-09T11:06:56;100625.31;;;14.32;100.00
16194;BME280;8204;53.582;10.080;2023-10-09T11:09:55;100620.88;;;14.32;100.00
16194;BME280;8204;53.582;10.080;2023-10-09T11:15:10;100616.25;;;14.34;100.00
16194;BME280;8204;53.582;10.080;2023-10-09T11:18:02;100604.88;;;14.34;100.00
16194;BME280;8204;53.582;10.080;2023-10-09T11:20:42;100599.41;;;14.35;100.00
16194;BME280;8204;53.582;10.080;2023-10-09T11:23:20;100599.25;;;14.37;100.00
16194;BME280;8204;53.582;10.080;2023-10-09T11:25:55;100601.69;;;14.38;100.00
16194;BME280;8204;53.582;10.080;2023-10-09T11:28:41;100604.31;;;14.38;100.00
16194;BME280;8204;53.582;10.080;2023-10-09T11:31:23;100600.69;;;14.39;100.00
16194;BME280;8204;53.582;10.080;2023-10-09T11:33:50;100597.06;;;14.40;100.00
16194;BME280;8204;53.582;10.080;2023-10-09T11:36:21;100596.03;;;14.41;100.00
16194;BME280;8204;53.582;10.080;2023-10-09T11:39:00;100595.88;;;14.43;100.00
16194;BME280;8204;53.582;10.080;2023-10-09T11:41:39;100602.94;;;14.42;100.00
16194;BME280;8204;53.582;10.080;2023-10-09T11:44:06;100599.94;;;14.45;100.00
16194;BME280;8204;53.582;10.080;2023-10-09T11:46:32;100592.69;;;14.47;100.00
16194;BME280;8204;53.582;10.080;2023-10-09T11:49:13;100590.03;;;14.47;100.00
16194;BME280;8204;53.582;10.080;2023-10-09T11:52:06;100584.38;;;14.50;100.00
16194;BME280;8204;53.582;10.080;2023-10-09T11:54:38;100585.00;;;14.52;100.00
16194;BME280;8204;53.582;10.080;2023-10-09T11:57:03;100570.00;;;14.53;100.00
16194;BME280;8204;53.582;10.080;2023-10-09T11:59:30;100569.63;;;14.56;100.00
16194;BME280;8204;53.582;10.080;2023-10-09T12:02:05;100566.00;;;14.57;100.00
16194;BME280;8204;53.582;10.080;2023-10-09T12:04:30;100575.34;;;14.59;100.00
16194;BME280;8204;53.582;10.080;2023-10-09T12:06:57;100562.78;;;14.61;100.00
16194;BME280;8204;53.582;10.080;2023-10-09T12:09:32;100553.69;;;14.63;100.00
16194;BME280;8204;53.582;10.080;2023-10-09T12:12:04;100554.09;;;14.67;100.00
16194;BME280;8204;53.582;10.080;2023-10-09T12:14:30;100544.81;;;14.71;100.00
16194;BME280;8204;53.582;10.080;2023-10-09T12:16:59;100533.06;;;14.73;100.00
16194;BME280;8204;53.582;10.080;2023-10-09T12:19:34;100537.97;;;14.76;100.00
16194;BME280;8204;53.582;10.080;2023-10-09T12:22:00;100534.94;;;14.79;100.00
16194;BME280;8204;53.582;10.080;2023-10-09T12:24:30;100536.38;;;14.82;100.00
16194;BME280;8204;53.582;10.080;2023-10-09T12:26:55;100544.31;;;14.82;100.00
16194;BME280;8204;53.582;10.080;2023-10-09T12:29:21;100551.22;;;14.83;100.00
16194;BME280;8204;53.582;10.080;2023-10-09T12:31:47;100554.50;;;14.85;100.00
16194;BME280;8204;53.582;10.080;2023-10-09T12:34:14;100547.19;;;14.87;100.00
16194;BME280;8204;53.582;10.080;2023-10-09T12:36:44;100552.44;;;14.87;100.00
16194;BME280;8204;53.582;10.080;2023-10-09T12:39:10;100556.72;;;14.88;100.00
16194;BME280;8204;53.582;10.080;2023-10-09T12:41:44;100572.41;;;14.89;100.00
16194;BME280;8204;53.582;10.080;2023-10-09T12:44:09;100566.91;;;14.91;100.00
16194;BME280;8204;53.582;10.080;2023-10-09T12:46:44;100561.44;;;14.92;100.00
16194;BME280;8204;53.582;10.080;2023-10-09T12:49:21;100557.00;;;14.93;100.00
16194;BME280;8204;53.582;10.080;2023-10-09T12:51:54;100562.88;;;14.95;100.00
16194;BME280;8204;53.582;10.080;2023-10-09T12:54:20;100555.97;;;14.94;100.00
16194;BME280;8204;53.582;10.080;2023-10-09T12:56:45;100563.72;;;14.95;100.00
16194;BME280;8204;53.582;10.080;2023-10-09T12:59:14;100555.59;;;14.97;100.00
16194;BME280;8204;53.582;10.080;2023-10-09T13:01:43;100553.59;;;14.99;100.00
16194;BME280;8204;53.582;10.080;2023-10-09T13:04:12;100528.81;;;15.00;100.00
16194;BME280;8204;53.582;10.080;2023-10-09T13:06:44;100536.34;;;15.03;100.00
16194;BME280;8204;53.582;10.080;2023-10-09T13:09:11;100530.88;;;15.04;100.00
16194;BME280;8204;53.582;10.080;2023-10-09T13:11:36;100525.44;;;15.06;100.00
16194;BME280;8204;53.582;10.080;2023-10-09T13:14:03;100529.50;;;15.08;100.00
16194;BME280;8204;53.582;10.080;2023-10-09T13:16:45;100519.38;;;15.12;100.00
16194;BME280;8204;53.582;10.080;2023-10-09T13:19:13;100521.63;;;15.15;100.00
16194;BME280;8204;53.582;10.080;2023-10-09T13:21:39;100519.63;;;15.17;100.00
16194;BME280;8204;53.582;10.080;2023-10-09T13:24:06;100513.94;;;15.20;100.00
16194;BME280;8204;53.582;10.080;2023-10-09T13:26:42;100513.75;;;15.21;100.00
16194;BME280;8204;53.582;10.080;2023-10-09T13:29:11;100509.09;;;15.23;100.00